Longkou, China
Current Conditions -  °F | °C
As of 12:00 AM on Saturday 25 Oct 2014 (Local Time) from ZSQD Reporting Station
Clear Clear  
Wind Chill: 66°   Ceiling: Unl
Heat Index: 66°   Visibility: 4mi
Dew Point: 59°   Wind: 13mph
Humidity: 78%   Direction: 170°S
Pressure: 30"   Gusts: NA
Location:  37.65°N, 120.33°E
Report Text: ZSQD 241600Z 17006MPS 6000 NSC 19/15 Q1016 NOSIG
Loading
Personal Weather Stations






























Interactive Weather Map
Tropical Storm Tracking
New forecast layout! Learn more

10-Day Weather Forecast

Advertisements
Track Severe Weather on mobile